createdAt,value
2019-05-29T00:00:03.196Z,90.70
2019-05-29T00:02:31.766Z,90.80
2019-05-29T00:05:00.208Z,91.10
2019-05-29T00:07:28.685Z,91.20
2019-05-29T00:09:57.180Z,91.40
2019-05-29T00:12:25.624Z,91.60
2019-05-29T00:14:54.176Z,91.70
2019-05-29T00:17:22.665Z,91.70
2019-05-29T00:19:51.173Z,91.90
2019-05-29T00:22:19.612Z,91.90
2019-05-29T00:24:48.097Z,91.90
2019-05-29T00:27:17.759Z,91.90
2019-05-29T00:29:46.396Z,91.90
2019-05-29T00:32:15.138Z,91.80
2019-05-29T00:34:43.741Z,91.80
2019-05-29T00:37:12.517Z,92.00
2019-05-29T00:39:41.422Z,92.20
2019-05-29T00:42:11.020Z,92.20
2019-05-29T00:44:39.618Z,92.30
2019-05-29T00:47:08.115Z,92.30
2019-05-29T00:49:36.553Z,92.50
2019-05-29T00:52:04.987Z,92.70
2019-05-29T00:54:33.474Z,92.60
2019-05-29T00:57:01.917Z,92.50
2019-05-29T00:59:30.357Z,92.70
2019-05-29T01:01:58.847Z,92.80
2019-05-29T01:04:27.288Z,92.70
2019-05-29T01:06:55.739Z,92.90
2019-05-29T01:09:24.236Z,93.00
2019-05-29T01:11:52.670Z,93.00
2019-05-29T01:14:21.471Z,93.00
2019-05-29T01:16:50.020Z,93.20
2019-05-29T01:19:27.704Z,93.40
2019-05-29T01:21:56.724Z,93.50
2019-05-29T01:24:26.372Z,93.40
2019-05-29T01:26:54.877Z,93.70
2019-05-29T01:29:23.495Z,93.60
2019-05-29T01:31:51.957Z,93.70
2019-05-29T01:34:20.846Z,93.90
2019-05-29T01:36:50.432Z,93.90
2019-05-29T01:39:19.353Z,93.80
2019-05-29T01:41:47.900Z,93.90
2019-05-29T01:44:17.376Z,94.00
2019-05-29T01:46:46.036Z,93.90
2019-05-29T01:49:16.025Z,94.10
2019-05-29T01:51:44.620Z,94.00
2019-05-29T01:54:13.164Z,94.10
2019-05-29T01:56:41.695Z,93.90
2019-05-29T01:59:10.105Z,94.10
2019-05-29T02:01:38.537Z,94.20
2019-05-29T02:04:07.059Z,94.20
2019-05-29T02:06:35.497Z,94.40
2019-05-29T02:09:05.684Z,94.50
2019-05-29T02:11:34.304Z,94.40
2019-05-29T02:14:02.754Z,94.30
2019-05-29T02:16:31.270Z,94.40
2019-05-29T02:18:59.697Z,94.60
2019-05-29T02:21:28.480Z,94.50
2019-05-29T02:23:57.128Z,94.30
2019-05-29T02:26:26.560Z,94.50
2019-05-29T02:28:55.142Z,94.50
2019-05-29T02:31:26.321Z,94.80
2019-05-29T02:33:54.054Z,94.70
2019-05-29T02:36:23.979Z,94.90
2019-05-29T02:38:52.621Z,94.70
2019-05-29T02:41:21.676Z,94.80
2019-05-29T02:43:51.144Z,94.70
2019-05-29T02:46:20.006Z,95.00
2019-05-29T02:48:49.750Z,94.90
2019-05-29T02:51:19.612Z,95.10
2019-05-29T02:53:48.297Z,95.10
2019-05-29T02:56:16.819Z,95.10
2019-05-29T02:58:45.684Z,95.20
2019-05-29T03:01:14.119Z,95.40
2019-05-29T03:03:42.683Z,95.10
2019-05-29T03:06:11.439Z,95.30
2019-05-29T03:08:39.870Z,95.20
2019-05-29T03:11:08.315Z,95.20
2019-05-29T03:13:36.892Z,95.40
2019-05-29T03:16:11.192Z,95.10
2019-05-29T03:18:35.478Z,95.10
2019-05-29T03:21:03.906Z,95.00
2019-05-29T03:23:33.979Z,95.10
2019-05-29T03:26:02.486Z,95.30
2019-05-29T03:28:32.303Z,95.40
2019-05-29T03:31:01.074Z,95.50
2019-05-29T03:33:35.514Z,95.50
2019-05-29T03:35:59.737Z,95.70
2019-05-29T03:38:28.369Z,95.80
2019-05-29T03:40:57.042Z,95.80
2019-05-29T03:43:26.171Z,95.50
2019-05-29T03:45:54.750Z,95.90
2019-05-29T03:48:23.233Z,95.90
2019-05-29T03:50:51.692Z,95.70
2019-05-29T03:53:20.138Z,95.80
2019-05-29T03:55:48.626Z,95.80
2019-05-29T03:58:17.144Z,96.00
2019-05-29T04:00:48.239Z,95.70
2019-05-29T04:03:15.718Z,95.70
2019-05-29T04:05:44.166Z,95.30
2019-05-29T04:08:12.750Z,95.80
2019-05-29T04:10:41.198Z,95.60
2019-05-29T04:13:09.634Z,94.80
2019-05-29T04:15:38.627Z,95.20
2019-05-29T04:18:07.848Z,94.40
2019-05-29T04:20:38.773Z,93.90
2019-05-29T04:23:07.680Z,93.00
2019-05-29T04:25:40.622Z,93.30
2019-05-29T04:28:07.912Z,92.70
2019-05-29T04:30:36.640Z,92.30
2019-05-29T04:33:06.529Z,92.60
2019-05-29T04:35:36.635Z,93.10
2019-05-29T04:38:05.120Z,92.90
2019-05-29T04:40:35.045Z,92.70
2019-05-29T04:43:03.795Z,93.50
2019-05-29T04:45:33.303Z,94.00
2019-05-29T04:48:02.542Z,94.20
2019-05-29T04:50:31.825Z,94.20
2019-05-29T04:53:01.170Z,94.00
2019-05-29T04:55:30.700Z,94.00
2019-05-29T04:57:59.418Z,94.00
2019-05-29T05:00:28.994Z,94.00
2019-05-29T05:02:57.616Z,93.80
2019-05-29T05:05:26.101Z,93.90
2019-05-29T05:07:54.552Z,93.90
2019-05-29T05:10:38.018Z,93.80
2019-05-29T05:13:06.846Z,93.70
2019-05-29T05:15:36.056Z,93.70
2019-05-29T05:18:05.644Z,93.50
2019-05-29T05:20:34.086Z,93.40
2019-05-29T05:23:02.537Z,93.30
2019-05-29T05:25:32.081Z,93.20
2019-05-29T05:28:00.680Z,92.90
2019-05-29T05:30:30.287Z,92.60
2019-05-29T05:32:59.083Z,92.60
2019-05-29T05:35:27.596Z,92.40
2019-05-29T05:37:56.042Z,92.20
2019-05-29T05:40:24.486Z,91.90
2019-05-29T05:42:52.976Z,91.90
2019-05-29T05:45:21.465Z,91.70
2019-05-29T05:47:57.448Z,91.40
2019-05-29T05:50:20.036Z,91.00
2019-05-29T05:52:48.506Z,91.30
2019-05-29T05:55:16.954Z,91.20
2019-05-29T05:57:45.402Z,91.20
2019-05-29T06:00:13.884Z,90.80
2019-05-29T06:02:42.385Z,90.60
2019-05-29T06:05:10.839Z,90.40
2019-05-29T06:07:40.379Z,90.40
2019-05-29T06:10:09.543Z,90.00
2019-05-29T06:12:38.624Z,89.80
2019-05-29T06:15:07.406Z,89.10
2019-05-29T06:17:36.584Z,87.10
2019-05-29T06:20:06.825Z,88.40
2019-05-29T06:22:35.335Z,86.80
2019-05-29T06:25:04.020Z,85.70
2019-05-29T06:27:33.473Z,85.80
2019-05-29T06:30:03.182Z,85.00
2019-05-29T06:32:33.354Z,86.40
2019-05-29T06:35:02.084Z,86.50
2019-05-29T06:37:30.614Z,87.00
2019-05-29T06:39:59.096Z,86.60
2019-05-29T06:42:27.553Z,86.50
2019-05-29T06:44:56.166Z,87.00
2019-05-29T06:47:24.613Z,85.40
2019-05-29T06:49:53.068Z,85.70
2019-05-29T06:52:21.512Z,85.60
2019-05-29T06:54:49.999Z,85.10
2019-05-29T06:57:18.466Z,84.70
2019-05-29T06:59:46.909Z,84.90
2019-05-29T07:02:15.482Z,82.70
2019-05-29T07:04:44.637Z,82.80
2019-05-29T07:07:13.257Z,84.00
2019-05-29T07:09:42.987Z,82.60
2019-05-29T07:12:11.597Z,83.30
2019-05-29T07:14:40.322Z,81.00
2019-05-29T07:17:09.076Z,81.60
2019-05-29T07:19:52.447Z,82.20
2019-05-29T07:22:07.690Z,80.50
2019-05-29T07:24:37.005Z,80.50
2019-05-29T07:27:05.683Z,80.80
2019-05-29T07:29:34.116Z,80.50
2019-05-29T07:32:02.560Z,80.30
2019-05-29T07:34:47.404Z,80.60
2019-05-29T07:37:01.212Z,78.80
2019-05-29T07:39:29.661Z,78.10
2019-05-29T07:41:58.157Z,78.70
2019-05-29T07:44:26.661Z,78.00
2019-05-29T07:46:55.477Z,76.80
2019-05-29T07:49:38.139Z,76.40
2019-05-29T07:51:54.166Z,74.90
2019-05-29T07:54:22.601Z,73.80
2019-05-29T07:56:51.109Z,75.80
2019-05-29T07:59:19.560Z,74.90
2019-05-29T08:01:49.157Z,72.50
2019-05-29T08:04:17.923Z,73.00
2019-05-29T08:06:51.134Z,72.90
2019-05-29T08:09:16.524Z,73.50
2019-05-29T08:11:45.641Z,71.50
2019-05-29T08:14:14.157Z,70.60
2019-05-29T08:16:43.919Z,70.70
2019-05-29T08:19:12.475Z,66.90
2019-05-29T08:21:41.395Z,66.80
2019-05-29T08:24:11.110Z,65.80
2019-05-29T08:26:40.749Z,70.00
2019-05-29T08:29:09.408Z,66.30
2019-05-29T08:31:37.854Z,67.10
2019-05-29T08:34:06.355Z,67.50
2019-05-29T08:36:34.801Z,64.60
2019-05-29T08:39:03.434Z,65.30
2019-05-29T08:41:31.917Z,64.40
2019-05-29T08:44:00.370Z,64.00
2019-05-29T08:46:28.853Z,65.70
2019-05-29T08:48:57.378Z,62.80
2019-05-29T08:51:25.902Z,61.10
2019-05-29T08:53:54.827Z,61.70
2019-05-29T08:56:23.455Z,61.40
2019-05-29T08:58:52.563Z,64.00
2019-05-29T09:01:21.094Z,63.10
2019-05-29T09:03:51.016Z,62.40
2019-05-29T09:06:19.846Z,62.40
2019-05-29T09:08:49.938Z,61.90
2019-05-29T09:11:18.365Z,61.70
2019-05-29T09:13:46.872Z,61.80
2019-05-29T09:16:15.386Z,61.60
2019-05-29T09:18:43.945Z,61.20
2019-05-29T09:21:13.989Z,60.70
2019-05-29T09:23:42.480Z,62.10
2019-05-29T09:26:16.029Z,60.00
2019-05-29T09:28:41.058Z,61.60
2019-05-29T09:31:09.573Z,61.20
2019-05-29T09:33:38.005Z,59.00
2019-05-29T09:36:06.450Z,60.60
2019-05-29T09:38:34.944Z,60.00
2019-05-29T09:41:03.411Z,56.80
2019-05-29T09:43:31.853Z,59.40
2019-05-29T09:46:02.324Z,60.50
2019-05-29T09:48:30.621Z,60.60
2019-05-29T09:50:59.069Z,61.50
2019-05-29T09:53:27.553Z,59.40
2019-05-29T09:55:57.796Z,60.80
2019-05-29T09:58:26.210Z,59.20
2019-05-29T10:01:15.399Z,59.10
2019-05-29T10:03:24.825Z,60.20
2019-05-29T10:05:54.551Z,58.90
2019-05-29T10:08:23.625Z,56.60
2019-05-29T10:10:52.133Z,55.60
2019-05-29T10:13:22.218Z,57.30
2019-05-29T10:15:50.745Z,56.50
2019-05-29T10:18:31.961Z,56.30
2019-05-29T10:20:49.453Z,57.30
2019-05-29T10:23:20.029Z,56.80
2019-05-29T10:25:47.991Z,56.50
2019-05-29T10:28:16.499Z,58.80
2019-05-29T10:30:46.209Z,55.30
2019-05-29T10:33:15.045Z,56.60
2019-05-29T10:35:44.706Z,53.30
2019-05-29T10:38:13.345Z,54.30
2019-05-29T10:40:45.657Z,54.80
2019-05-29T10:43:11.942Z,55.10
2019-05-29T10:45:40.945Z,56.50
2019-05-29T10:48:09.649Z,54.10
2019-05-29T10:50:38.454Z,55.10
2019-05-29T10:53:06.902Z,54.40
2019-05-29T10:55:35.440Z,54.70
2019-05-29T10:58:03.971Z,56.10
2019-05-29T11:00:32.421Z,54.50
2019-05-29T11:03:00.941Z,51.60
2019-05-29T11:05:29.387Z,55.90
2019-05-29T11:07:57.829Z,54.30
2019-05-29T11:10:26.397Z,55.10
2019-05-29T11:12:54.842Z,54.00
2019-05-29T11:15:23.446Z,53.40
2019-05-29T11:17:53.120Z,53.80
2019-05-29T11:20:21.793Z,53.20
2019-05-29T11:22:51.533Z,54.10
2019-05-29T11:25:23.568Z,55.60
2019-05-29T11:27:50.412Z,54.50
2019-05-29T11:30:23.698Z,55.10
2019-05-29T11:32:54.649Z,53.60
2019-05-29T11:35:22.252Z,53.00
2019-05-29T11:37:50.745Z,56.10
2019-05-29T11:40:19.199Z,58.70
2019-05-29T11:42:47.693Z,60.80
2019-05-29T11:45:17.889Z,61.70
2019-05-29T11:47:46.342Z,62.60
2019-05-29T11:50:19.863Z,63.10
2019-05-29T11:52:46.775Z,62.70
2019-05-29T11:55:15.369Z,61.10
2019-05-29T11:57:43.875Z,62.20
2019-05-29T12:00:20.376Z,62.00
2019-05-29T12:02:44.774Z,61.40
2019-05-29T12:05:13.274Z,61.00
2019-05-29T12:07:41.745Z,62.20
2019-05-29T12:10:10.399Z,61.80
2019-05-29T12:12:39.176Z,63.50
2019-05-29T12:15:14.323Z,65.80
2019-05-29T12:17:38.331Z,66.20
2019-05-29T12:20:26.373Z,66.80
2019-05-29T12:22:37.404Z,64.20
2019-05-29T12:25:06.029Z,63.00
2019-05-29T12:27:34.513Z,66.50
2019-05-29T12:30:03.361Z,65.10
2019-05-29T12:32:31.934Z,65.60
2019-05-29T12:35:01.128Z,67.50
2019-05-29T12:37:29.841Z,67.30
2019-05-29T12:39:58.337Z,69.60
2019-05-29T12:42:28.441Z,69.20
2019-05-29T12:44:57.558Z,68.50
2019-05-29T12:47:26.301Z,67.80
2019-05-29T12:49:55.489Z,69.50
2019-05-29T12:52:24.121Z,68.90
2019-05-29T12:54:53.786Z,68.80
2019-05-29T12:57:23.597Z,68.00
2019-05-29T12:59:52.299Z,69.40
2019-05-29T13:02:20.794Z,69.60
2019-05-29T13:05:06.879Z,71.50
2019-05-29T13:07:19.522Z,72.10
2019-05-29T13:09:47.979Z,71.50
2019-05-29T13:12:16.462Z,71.50
2019-05-29T13:14:45.034Z,71.00
2019-05-29T13:17:13.550Z,71.00
2019-05-29T13:19:42.008Z,68.50
2019-05-29T13:22:10.503Z,65.90
2019-05-29T13:24:38.954Z,64.70
2019-05-29T13:27:07.401Z,62.30
2019-05-29T13:29:36.282Z,64.10
2019-05-29T13:32:06.046Z,64.20
2019-05-29T13:34:34.964Z,63.90
2019-05-29T13:37:07.349Z,64.80
2019-05-29T13:39:33.554Z,63.80
2019-05-29T13:42:08.601Z,64.90
2019-05-29T13:44:32.168Z,63.50
2019-05-29T13:47:01.850Z,66.30
2019-05-29T13:49:30.381Z,67.20
2019-05-29T13:51:59.172Z,64.70
2019-05-29T13:54:27.745Z,64.40
2019-05-29T13:56:58.984Z,64.90
2019-05-29T13:59:26.291Z,66.20
2019-05-29T14:01:54.780Z,67.30
2019-05-29T14:04:23.333Z,66.70
2019-05-29T14:06:53.073Z,66.30
2019-05-29T14:09:21.849Z,65.60
2019-05-29T14:11:50.302Z,66.30
2019-05-29T14:14:18.827Z,67.40
2019-05-29T14:16:47.270Z,68.10
2019-05-29T14:19:15.860Z,68.30
2019-05-29T14:21:44.395Z,69.30
2019-05-29T14:24:26.322Z,70.70
2019-05-29T14:26:42.961Z,70.90
2019-05-29T14:29:11.936Z,69.50
2019-05-29T14:31:40.408Z,67.20
2019-05-29T14:34:09.460Z,66.40
2019-05-29T14:36:38.217Z,64.60
2019-05-29T14:39:07.724Z,64.00
2019-05-29T14:41:36.253Z,64.80
2019-05-29T14:44:05.706Z,65.00
2019-05-29T14:46:34.261Z,70.30
2019-05-29T14:49:03.932Z,74.00
2019-05-29T14:51:32.770Z,74.60
2019-05-29T14:54:02.653Z,75.10
2019-05-29T14:56:31.457Z,75.90
2019-05-29T14:59:00.073Z,76.40
2019-05-29T15:01:28.567Z,80.20
2019-05-29T15:03:57.013Z,77.70
2019-05-29T15:06:25.542Z,77.00
2019-05-29T15:08:54.036Z,76.70
2019-05-29T15:11:22.468Z,78.10
2019-05-29T15:13:50.970Z,79.10
2019-05-29T15:16:19.506Z,77.10
2019-05-29T15:18:47.946Z,75.10
2019-05-29T15:21:16.434Z,71.90
2019-05-29T15:23:44.888Z,71.50
2019-05-29T15:26:14.237Z,72.40
2019-05-29T15:28:42.812Z,75.00
2019-05-29T15:31:12.397Z,74.90
2019-05-29T15:33:40.959Z,71.00
2019-05-29T15:36:10.229Z,65.70
2019-05-29T15:38:39.116Z,65.40
2019-05-29T15:41:08.650Z,65.40
2019-05-29T15:43:37.306Z,64.90
2019-05-29T15:46:09.561Z,66.00
2019-05-29T15:48:35.888Z,66.60
2019-05-29T15:51:04.330Z,67.30
2019-05-29T15:53:32.861Z,68.30
2019-05-29T15:56:16.917Z,67.10
2019-05-29T15:58:31.471Z,67.20
2019-05-29T16:00:59.914Z,68.70
2019-05-29T16:03:28.400Z,69.60
2019-05-29T16:05:56.841Z,68.80
2019-05-29T16:08:25.334Z,69.80
2019-05-29T16:10:53.819Z,69.90
2019-05-29T16:13:22.260Z,69.90
2019-05-29T16:15:50.775Z,71.40
2019-05-29T16:18:27.295Z,72.10
2019-05-29T16:20:49.657Z,71.20
2019-05-29T16:23:32.357Z,72.10
2019-05-29T16:25:48.226Z,71.20
2019-05-29T16:28:17.243Z,72.40
2019-05-29T16:30:45.848Z,73.60
2019-05-29T16:33:15.066Z,73.20
2019-05-29T16:35:43.969Z,74.10
2019-05-29T16:38:14.113Z,74.00
2019-05-29T16:40:42.501Z,72.10
2019-05-29T16:43:11.915Z,72.30
2019-05-29T16:45:40.536Z,72.90
2019-05-29T16:48:09.054Z,73.30
2019-05-29T16:50:37.498Z,74.70
2019-05-29T16:53:06.013Z,73.50
2019-05-29T16:55:34.501Z,74.50
2019-05-29T16:58:02.977Z,74.60
2019-05-29T17:00:31.466Z,74.20
2019-05-29T17:02:59.916Z,74.30
2019-05-29T17:05:28.361Z,73.50
2019-05-29T17:07:56.941Z,73.90
2019-05-29T17:10:36.078Z,73.30
2019-05-29T17:13:05.268Z,74.40
2019-05-29T17:15:33.752Z,73.00
2019-05-29T17:18:02.287Z,73.10
2019-05-29T17:20:41.429Z,73.00
2019-05-29T17:23:10.120Z,73.30
2019-05-29T17:25:38.593Z,73.90
2019-05-29T17:28:07.081Z,74.20
2019-05-29T17:30:35.530Z,74.50
2019-05-29T17:33:04.001Z,74.60
2019-05-29T17:35:32.477Z,75.90
2019-05-29T17:38:00.921Z,76.80
2019-05-29T17:40:29.414Z,76.40
2019-05-29T17:42:57.853Z,76.70
2019-05-29T17:45:27.421Z,77.20
2019-05-29T17:47:56.012Z,77.50
2019-05-29T17:50:25.259Z,78.80
2019-05-29T17:52:54.524Z,79.40
2019-05-29T17:55:24.593Z,79.80
2019-05-29T17:57:53.324Z,80.20
2019-05-29T18:00:22.481Z,80.40
2019-05-29T18:02:52.631Z,79.90
2019-05-29T18:05:22.593Z,79.10
2019-05-29T18:07:51.233Z,79.20
2019-05-29T18:10:21.995Z,77.60
2019-05-29T18:12:50.248Z,77.50
2019-05-29T18:15:19.842Z,75.90
2019-05-29T18:17:48.285Z,74.80
2019-05-29T18:20:17.898Z,74.10
2019-05-29T18:22:46.465Z,68.40
2019-05-29T18:25:14.977Z,66.90
2019-05-29T18:27:43.388Z,66.80
2019-05-29T18:30:11.936Z,67.20
2019-05-29T18:32:40.428Z,67.30
2019-05-29T18:35:09.056Z,68.10
2019-05-29T18:37:37.605Z,68.10
2019-05-29T18:40:12.024Z,69.80
2019-05-29T18:42:37.777Z,68.60
2019-05-29T18:45:19.611Z,69.10
2019-05-29T18:47:37.866Z,69.30
2019-05-29T18:50:09.168Z,69.60
2019-05-29T18:52:37.633Z,69.50
2019-05-29T18:55:07.785Z,69.90
2019-05-29T18:57:36.268Z,70.30
2019-05-29T19:00:06.780Z,70.70
2019-05-29T19:02:35.236Z,71.10
2019-05-29T19:05:04.465Z,71.20
2019-05-29T19:07:32.905Z,72.20
2019-05-29T19:10:01.352Z,72.30
2019-05-29T19:12:30.126Z,72.90
2019-05-29T19:14:58.699Z,73.30
2019-05-29T19:17:27.993Z,73.90
2019-05-29T19:19:56.444Z,74.20
2019-05-29T19:22:26.242Z,74.70
2019-05-29T19:24:54.955Z,74.90
2019-05-29T19:27:36.346Z,75.80
2019-05-29T19:29:53.634Z,76.70
2019-05-29T19:32:23.247Z,77.90
2019-05-29T19:34:51.861Z,79.50
2019-05-29T19:37:20.357Z,79.30
2019-05-29T19:39:48.796Z,79.30
2019-05-29T19:42:17.241Z,79.70
2019-05-29T19:44:45.771Z,79.40
2019-05-29T19:47:14.206Z,80.00
2019-05-29T19:49:42.666Z,79.90
2019-05-29T19:52:11.288Z,80.30
2019-05-29T19:54:39.817Z,80.70
2019-05-29T19:57:08.293Z,81.20
2019-05-29T19:59:36.782Z,81.10
2019-05-29T20:02:05.278Z,81.00
2019-05-29T20:04:34.751Z,81.50
2019-05-29T20:07:03.352Z,81.40
2019-05-29T20:09:31.793Z,81.50
2019-05-29T20:12:00.330Z,81.40
2019-05-29T20:14:29.558Z,81.70
2019-05-29T20:16:58.517Z,81.90
2019-05-29T20:19:28.158Z,82.00
2019-05-29T20:21:56.840Z,82.10
2019-05-29T20:24:25.281Z,82.20
2019-05-29T20:26:53.721Z,82.80
2019-05-29T20:29:22.220Z,83.30
2019-05-29T20:31:50.808Z,83.50
2019-05-29T20:34:19.221Z,83.80
2019-05-29T20:36:47.765Z,83.90
2019-05-29T20:39:16.253Z,84.40
2019-05-29T20:41:44.747Z,84.40
2019-05-29T20:44:14.373Z,84.40
2019-05-29T20:46:42.874Z,85.30
2019-05-29T20:49:11.316Z,86.20
2019-05-29T20:51:40.277Z,88.30
2019-05-29T20:54:08.847Z,89.20
2019-05-29T20:56:37.770Z,90.20
2019-05-29T20:59:06.280Z,90.90
2019-05-29T21:01:40.874Z,91.20
2019-05-29T21:04:04.965Z,91.40
2019-05-29T21:06:34.504Z,91.80
2019-05-29T21:09:03.148Z,92.20
2019-05-29T21:11:31.645Z,91.90
2019-05-29T21:14:00.095Z,92.70
2019-05-29T21:16:28.548Z,93.00
2019-05-29T21:18:57.033Z,93.50
2019-05-29T21:21:25.478Z,94.00
2019-05-29T21:23:53.953Z,94.80
2019-05-29T21:26:22.449Z,95.10
2019-05-29T21:28:50.984Z,95.40
2019-05-29T21:31:19.493Z,95.90
2019-05-29T21:33:49.310Z,96.50
2019-05-29T21:36:18.030Z,96.60
2019-05-29T21:38:46.554Z,97.60
2019-05-29T21:41:14.958Z,97.40
2019-05-29T21:43:44.686Z,97.70
2019-05-29T21:46:13.438Z,97.90
2019-05-29T21:48:43.260Z,98.20
2019-05-29T21:51:11.917Z,98.60
2019-05-29T21:53:41.292Z,98.70
2019-05-29T21:56:09.857Z,98.90
2019-05-29T21:58:39.471Z,99.30
2019-05-29T22:01:08.605Z,99.50
2019-05-29T22:03:38.268Z,99.40
2019-05-29T22:06:06.925Z,99.90
2019-05-29T22:08:35.366Z,99.90
2019-05-29T22:11:03.916Z,99.90
2019-05-29T22:13:32.452Z,99.90
2019-05-29T22:16:00.963Z,99.90
2019-05-29T22:18:29.486Z,99.90
2019-05-29T22:20:58.724Z,99.90
2019-05-29T22:23:28.024Z,99.90
2019-05-29T22:25:57.378Z,99.90
2019-05-29T22:28:25.974Z,99.90
2019-05-29T22:30:55.333Z,99.90
2019-05-29T22:33:23.817Z,99.90
2019-05-29T22:35:53.734Z,99.90
2019-05-29T22:38:22.613Z,99.90
2019-05-29T22:40:52.197Z,99.90
2019-05-29T22:43:21.157Z,99.90
2019-05-29T22:45:49.648Z,99.90
2019-05-29T22:48:18.093Z,99.90
2019-05-29T22:50:46.584Z,99.90
2019-05-29T22:53:15.033Z,99.90
2019-05-29T22:55:43.478Z,99.90
2019-05-29T22:58:11.960Z,99.90
2019-05-29T23:00:40.401Z,99.90
2019-05-29T23:03:08.922Z,99.90
2019-05-29T23:05:37.374Z,99.90
2019-05-29T23:08:05.822Z,99.90
2019-05-29T23:10:34.327Z,99.90
2019-05-29T23:13:04.352Z,99.90
2019-05-29T23:15:32.978Z,99.90
2019-05-29T23:18:02.684Z,99.90
2019-05-29T23:20:31.353Z,99.90
2019-05-29T23:23:18.243Z,99.90
2019-05-29T23:25:46.722Z,99.90
2019-05-29T23:28:15.165Z,99.90
2019-05-29T23:30:43.991Z,99.90
2019-05-29T23:33:12.543Z,99.90
2019-05-29T23:35:41.601Z,99.90
2019-05-29T23:38:10.118Z,99.90
2019-05-29T23:40:38.620Z,99.90
2019-05-29T23:43:07.126Z,99.90
2019-05-29T23:45:35.569Z,99.90
2019-05-29T23:48:04.013Z,99.90
2019-05-29T23:50:32.505Z,99.90
2019-05-29T23:53:01.849Z,99.90
2019-05-29T23:55:30.452Z,99.90
2019-05-29T23:57:59.875Z,99.90
